Time;durP1;ratioP1;P1;durP2;ratioP2;P2;SDS_P1;SDS_P2;PMS_P1;PMS_P2;Temp;Humidity;BMP_temperature;BMP_pressure;BME280_temperature;BME280_humidity;BME280_pressure;Samples;Min_cycle;Max_cycle;Signal;HPM_P1;HPM_P2
2022/09/04 00:01:08;;;;;;;4.17;2.63;;;;;;;15.75;100.00;96351.59;5027033;28;20224;-74
2022/09/04 00:03:41;;;;;;;2.80;2.43;;;;;;;15.69;100.00;96347.22;5007916;28;20210;-74
2022/09/04 00:06:15;;;;;;;2.70;2.50;;;;;;;15.68;100.00;96344.75;5027640;28;20235;-74
2022/09/04 00:09:01;;;;;;;2.73;2.53;;;;;;;15.64;100.00;96341.75;5015549;28;20216;-74
2022/09/04 00:11:43;;;;;;;4.30;2.57;;;;;;;15.59;100.00;96340.88;5022003;28;20288;-75
2022/09/04 00:14:17;;;;;;;3.60;2.60;;;;;;;15.55;100.00;96339.78;5011333;28;20204;-74
2022/09/04 00:16:50;;;;;;;2.90;2.70;;;;;;;15.54;100.00;96349.03;5006252;28;20216;-75
2022/09/04 00:19:26;;;;;;;2.80;2.60;;;;;;;15.56;100.00;96352.31;5012988;28;20227;-74
2022/09/04 00:21:58;;;;;;;2.80;2.60;;;;;;;15.53;100.00;96359.06;5021487;28;20295;-75
2022/09/04 00:24:29;;;;;;;3.83;2.90;;;;;;;15.50;100.00;96354.94;5000027;28;20220;-74
2022/09/04 00:27:03;;;;;;;5.37;2.60;;;;;;;15.50;100.00;96345.97;5023260;28;20208;-74
2022/09/04 00:29:41;;;;;;;6.20;2.53;;;;;;;15.49;100.00;96352.47;5002290;28;20322;-74
2022/09/04 00:32:17;;;;;;;2.60;2.40;;;;;;;15.45;100.00;96356.81;4995905;28;20211;-74
2022/09/04 00:35:07;;;;;;;2.70;2.50;;;;;;;15.47;100.00;96355.50;5030612;28;20216;-74
2022/09/04 00:37:39;;;;;;;2.63;2.43;;;;;;;15.50;100.00;96354.94;5027973;28;20230;-75
2022/09/04 00:40:10;;;;;;;4.40;2.87;;;;;;;15.52;100.00;96350.06;5012266;28;20290;-74
2022/09/04 00:42:52;;;;;;;4.40;2.70;;;;;;;15.58;100.00;96356.38;5023242;28;20234;-74
2022/09/04 00:45:36;;;;;;;2.70;2.50;;;;;;;15.51;100.00;96348.44;5004624;28;20235;-74
2022/09/04 00:48:16;;;;;;;5.43;3.27;;;;;;;15.49;100.00;96352.47;5006791;28;20207;-74
2022/09/04 00:51:05;;;;;;;4.10;2.70;;;;;;;15.48;100.00;96357.09;5019899;28;20246;-74
2022/09/04 00:53:51;;;;;;;6.17;2.50;;;;;;;15.46;100.00;96364.72;5020411;28;20218;-74
2022/09/04 00:56:50;;;;;;;2.80;2.40;;;;;;;15.52;100.00;96373.75;5015232;28;20235;-74
2022/09/04 00:59:31;;;;;;;4.33;2.70;;;;;;;15.52;100.00;96360.13;4982878;28;20219;-75
2022/09/04 01:02:08;;;;;;;3.73;2.60;;;;;;;15.50;100.00;96354.94;5010644;28;20203;-74
2022/09/04 01:04:42;;;;;;;3.63;2.60;;;;;;;15.47;100.00;96357.38;4998904;28;20203;-74
2022/09/04 01:07:23;;;;;;;3.20;2.90;;;;;;;15.39;100.00;96341.53;5028206;28;20202;-74
2022/09/04 01:10:12;;;;;;;4.93;2.77;;;;;;;15.32;100.00;96362.69;5018128;28;20207;-75
2022/09/04 01:12:45;;;;;;;3.40;3.10;;;;;;;15.32;100.00;96368.94;5024252;28;20241;-74
2022/09/04 01:15:19;;;;;;;4.57;2.90;;;;;;;15.35;100.00;96357.56;5001869;28;20215;-74
2022/09/04 01:18:05;;;;;;;3.37;3.07;;;;;;;15.33;100.00;96359.72;5006154;28;20289;-74
2022/09/04 01:21:07;;;;;;;3.17;2.87;;;;;;;15.28;100.00;96350.69;5020360;28;20264;-74
2022/09/04 01:23:56;;;;;;;2.97;2.67;;;;;;;15.28;100.00;96361.56;4993589;28;20306;-74
2022/09/04 01:26:33;;;;;;;4.07;2.80;;;;;;;15.33;100.00;96367.06;5019507;28;20239;-75
2022/09/04 01:29:13;;;;;;;2.83;2.53;;;;;;;15.41;100.00;96372.00;5017250;28;20302;-74
2022/09/04 01:31:48;;;;;;;3.83;2.70;;;;;;;15.37;100.00;96355.41;5025419;28;20235;-74
2022/09/04 01:34:39;;;;;;;4.87;2.93;;;;;;;15.27;100.00;96354.50;5005643;28;20306;-74
2022/09/04 01:37:19;;;;;;;3.10;2.80;;;;;;;15.24;100.00;96360.44;5013167;28;20200;-74
2022/09/04 01:40:01;;;;;;;7.83;3.43;;;;;;;15.21;100.00;96360.97;5003721;28;20243;-74
2022/09/04 01:42:41;;;;;;;3.07;2.73;;;;;;;15.25;100.00;96362.09;5017062;28;20216;-74
2022/09/04 01:45:10;;;;;;;5.17;2.80;;;;;;;15.24;100.00;96360.44;5022986;28;20218;-74
2022/09/04 01:47:43;;;;;;;3.20;2.60;;;;;;;15.28;100.00;96361.56;5001186;28;20234;-74
2022/09/04 01:50:15;;;;;;;2.87;2.67;;;;;;;15.32;100.00;96355.34;5013995;28;20196;-74
2022/09/04 01:52:51;;;;;;;3.63;2.80;;;;;;;15.34;100.00;96371.41;5020092;28;20261;-75
2022/09/04 01:55:26;;;;;;;5.60;3.10;;;;;;;15.29;100.00;96374.09;5004546;28;20290;-74
2022/09/04 01:58:11;;;;;;;5.57;2.80;;;;;;;15.21;100.00;96369.13;5018567;28;20316;-74
2022/09/04 02:00:50;;;;;;;4.37;2.90;;;;;;;15.18;100.00;96361.50;5016519;28;20249;-74
2022/09/04 02:03:23;;;;;;;4.20;2.90;;;;;;;15.15;100.00;96355.47;5019847;28;20314;-75
2022/09/04 02:06:01;;;;;;;5.60;3.10;;;;;;;15.19;100.00;96363.13;5002559;28;20207;-75
2022/09/04 02:08:49;;;;;;;3.10;2.80;;;;;;;15.21;100.00;96371.84;5019685;28;20207;-74
2022/09/04 02:11:19;;;;;;;3.87;2.77;;;;;;;15.17;100.00;96365.28;5023538;28;20207;-75
2022/09/04 02:14:07;;;;;;;4.37;2.60;;;;;;;15.13;100.00;96365.81;5019804;28;20199;-74
2022/09/04 02:16:45;;;;;;;2.80;2.60;;;;;;;15.11;100.00;96362.53;5013427;28;20207;-74
2022/09/04 02:19:29;;;;;;;3.97;2.83;;;;;;;15.14;100.00;96362.00;5021375;28;20438;-74
2022/09/04 02:22:02;;;;;;;4.20;2.70;;;;;;;15.11;100.00;96359.81;5024641;28;20211;-74
2022/09/04 02:24:38;;;;;;;3.10;2.80;;;;;;;15.14;100.00;96362.00;5000771;28;20304;-74
2022/09/04 02:27:10;;;;;;;4.10;2.70;;;;;;;15.16;100.00;96380.78;5007016;28;20211;-74
2022/09/04 02:29:46;;;;;;;3.63;2.70;;;;;;;15.16;100.00;96372.63;5019246;28;20227;-74
2022/09/04 02:32:18;;;;;;;3.90;2.60;;;;;;;15.21;100.00;96374.59;5012941;28;20315;-75
2022/09/04 02:34:57;;;;;;;4.07;2.60;;;;;;;15.13;100.00;96365.00;5031118;28;20310;-74
2022/09/04 02:37:33;;;;;;;6.23;2.83;;;;;;;15.15;100.00;96369.06;5009094;28;20211;-74
2022/09/04 02:40:10;;;;;;;3.63;3.00;;;;;;;15.18;100.00;96372.38;5003773;28;20235;-74
2022/09/04 02:42:48;;;;;;;2.87;2.67;;;;;;;15.18;100.00;96372.38;5007525;28;20218;-74
2022/09/04 02:45:23;;;;;;;4.07;2.70;;;;;;;15.15;100.00;96369.06;5008185;28;20204;-74
2022/09/04 02:47:57;;;;;;;3.37;2.70;;;;;;;15.09;100.00;96375.56;5024635;28;20207;-74
2022/09/04 02:50:41;;;;;;;3.03;2.70;;;;;;;15.07;100.00;96375.00;5011474;28;20203;-74
2022/09/04 02:53:28;;;;;;;3.63;2.40;;;;;;;15.13;100.00;96375.88;4998152;28;20211;-74
2022/09/04 02:56:09;;;;;;;3.30;2.50;;;;;;;15.11;100.00;96372.59;5009358;28;20219;-75
2022/09/04 02:58:50;;;;;;;5.60;2.60;;;;;;;15.07;100.00;96366.81;5012397;28;20227;-74
2022/09/04 03:01:26;;;;;;;3.23;2.67;;;;;;;15.07;100.00;96387.75;5007580;28;20234;-75
2022/09/04 03:04:00;;;;;;;4.23;3.00;;;;;;;15.08;100.00;96389.41;5023722;28;20227;-75
2022/09/04 03:06:44;;;;;;;4.30;2.93;;;;;;;15.06;100.00;96389.66;5021404;28;20207;-74
2022/09/04 03:09:18;;;;;;;3.17;2.70;;;;;;;15.07;100.00;96393.19;5003502;28;20207;-74
2022/09/04 03:11:52;;;;;;;3.60;2.70;;;;;;;15.03;100.00;96390.19;5026507;28;20207;-74
2022/09/04 03:14:33;;;;;;;3.47;2.83;;;;;;;15.04;100.00;96397.28;5030917;28;20211;-75
2022/09/04 03:17:10;;;;;;;3.33;3.00;;;;;;;15.09;100.00;96396.50;5020428;28;20204;-74
2022/09/04 03:19:45;;;;;;;2.70;2.50;;;;;;;15.07;100.00;96388.59;5013969;28;20210;-74
2022/09/04 03:22:17;;;;;;;3.40;2.67;;;;;;;15.09;100.00;96386.44;5008585;28;20203;-74
2022/09/04 03:25:10;;;;;;;3.23;2.93;;;;;;;15.14;100.00;96389.19;5018500;28;20269;-75
2022/09/04 03:27:37;;;;;;;4.50;3.00;;;;;;;15.15;100.00;96400.88;5023399;28;20207;-74
2022/09/04 03:30:07;;;;;;;4.00;2.80;;;;;;;15.20;100.00;96397.41;5008772;28;20246;-74
2022/09/04 03:32:45;;;;;;;6.93;2.50;;;;;;;15.21;100.00;96396.34;5008935;28;20384;-74
2022/09/04 03:35:21;;;;;;;3.10;2.40;;;;;;;15.21;100.00;96393.63;5027876;28;20267;-74
2022/09/04 03:38:04;;;;;;;3.27;2.53;;;;;;;15.17;100.00;96392.47;5026949;28;20210;-75
2022/09/04 03:40:37;;;;;;;3.70;2.73;;;;;;;15.20;100.00;96403.69;5006891;28;20234;-74
2022/09/04 03:43:33;;;;;;;4.33;2.90;;;;;;;15.14;100.00;96412.88;5017393;28;20211;-74
2022/09/04 03:46:10;;;;;;;4.37;2.87;;;;;;;15.11;100.00;96410.66;5021975;28;20200;-74
2022/09/04 03:48:51;;;;;;;4.53;2.97;;;;;;;15.05;100.00;96400.81;5027966;28;20261;-74
2022/09/04 03:51:28;;;;;;;4.20;2.70;;;;;;;15.05;100.00;96398.09;5010569;28;20199;-74
2022/09/04 03:54:07;;;;;;;3.60;2.90;;;;;;;15.08;100.00;96397.56;5030369;28;20230;-74
2022/09/04 03:56:58;;;;;;;3.73;2.80;;;;;;;15.11;100.00;96408.75;5020221;28;20231;-73
2022/09/04 03:59:46;;;;;;;3.00;2.27;;;;;;;15.10;100.00;96412.56;5020934;28;20223;-75
2022/09/04 04:02:23;;;;;;;8.37;2.90;;;;;;;15.11;100.00;96421.53;5003850;28;20287;-74
2022/09/04 04:05:13;;;;;;;3.33;2.57;;;;;;;15.07;100.00;96418.50;5008076;28;20516;-75
2022/09/04 04:07:47;;;;;;;5.07;3.00;;;;;;;15.09;100.00;96424.50;5006484;28;20210;-74
2022/09/04 04:10:32;;;;;;;2.70;2.50;;;;;;;15.17;100.00;96416.97;5021181;28;20257;-74
2022/09/04 04:13:35;;;;;;;3.17;2.83;;;;;;;15.07;100.00;96421.22;5003661;28;20235;-74
2022/09/04 04:16:20;;;;;;;4.50;2.90;;;;;;;15.06;100.00;96426.91;5007408;28;20203;-74
2022/09/04 04:19:12;;;;;;;5.13;2.70;;;;;;;15.01;100.00;96424.97;5027219;28;20210;-74
2022/09/04 04:21:54;;;;;;;4.60;3.07;;;;;;;14.97;100.00;96432.00;5017677;28;20238;-74
2022/09/04 04:24:37;;;;;;;2.80;2.60;;;;;;;14.98;100.00;96430.91;5015944;28;20239;-74
2022/09/04 04:27:24;;;;;;;2.93;2.73;;;;;;;15.05;100.00;96439.72;5022842;28;20215;-75
2022/09/04 04:30:08;;;;;;;6.20;2.70;;;;;;;15.09;100.00;96445.44;5006059;28;20208;-74
2022/09/04 04:32:50;;;;;;;4.10;2.50;;;;;;;15.12;100.00;96434.88;5007544;28;20290;-74
2022/09/04 04:35:29;;;;;;;5.73;2.70;;;;;;;15.07;100.00;96444.88;5005829;28;20211;-74
2022/09/04 04:38:13;;;;;;;3.27;2.97;;;;;;;15.02;100.00;96451.09;5034764;28;20211;-75
2022/09/04 04:40:55;;;;;;;3.07;2.57;;;;;;;15.00;100.00;96452.41;5024268;28;20238;-75
2022/09/04 04:43:31;;;;;;;3.00;2.70;;;;;;;15.00;100.00;96453.25;5001306;28;20269;-74
2022/09/04 04:46:08;;;;;;;4.57;2.90;;;;;;;14.98;100.00;96449.13;5003838;28;20208;-74
2022/09/04 04:49:11;;;;;;;4.37;2.90;;;;;;;15.02;100.00;96464.69;5020620;28;20203;-75
2022/09/04 04:51:59;;;;;;;3.33;2.57;;;;;;;15.01;100.00;96460.31;5008533;28;20234;-74
2022/09/04 04:54:53;;;;;;;4.07;2.50;;;;;;;15.03;100.00;96468.22;5009345;28;20310;-74
2022/09/04 04:57:30;;;;;;;2.67;2.30;;;;;;;15.02;100.00;96461.97;4998537;28;20231;-74
2022/09/04 05:00:07;;;;;;;3.80;3.07;;;;;;;15.01;100.00;96464.94;5019442;28;20207;-74
2022/09/04 05:02:42;;;;;;;4.70;2.33;;;;;;;14.99;100.00;96476.06;5021113;28;20230;-74
2022/09/04 05:05:14;;;;;;;3.00;2.47;;;;;;;14.99;100.00;96472.53;5004709;28;20203;-74
2022/09/04 05:07:51;;;;;;;3.53;2.47;;;;;;;15.00;100.00;96477.72;5020342;28;20299;-74
2022/09/04 05:10:23;;;;;;;3.20;2.77;;;;;;;14.93;100.00;96482.53;5019665;28;20246;-74
2022/09/04 05:13:11;;;;;;;2.70;2.50;;;;;;;14.95;100.00;96488.53;4998501;28;20211;-74
2022/09/04 05:15:45;;;;;;;4.27;2.63;;;;;;;14.99;100.00;96488.84;5018580;28;20204;-74
2022/09/04 05:18:22;;;;;;;3.77;3.47;;;;;;;15.08;100.00;96488.13;5021776;28;20208;-74
2022/09/04 05:20:56;;;;;;;4.23;2.20;;;;;;;15.06;100.00;96486.72;5023140;28;20235;-74
2022/09/04 05:23:33;;;;;;;2.60;2.40;;;;;;;15.04;100.00;96494.34;5015561;28;20212;-74
2022/09/04 05:26:11;;;;;;;3.43;2.47;;;;;;;15.00;100.00;96496.75;5021818;28;20208;-74
2022/09/04 05:28:50;;;;;;;4.93;2.63;;;;;;;15.01;100.00;96506.56;5016427;28;20212;-74
2022/09/04 05:31:29;;;;;;;2.43;2.23;;;;;;;15.06;100.00;96512.03;5023752;28;20203;-74
2022/09/04 05:34:04;;;;;;;3.67;1.97;;;;;;;15.11;100.00;96514.84;5005241;28;20207;-74
2022/09/04 05:36:42;;;;;;;5.63;2.40;;;;;;;15.06;100.00;96509.31;4999779;28;20239;-75
2022/09/04 05:39:18;;;;;;;2.60;2.40;;;;;;;15.10;100.00;96515.09;5014020;28;20263;-74
2022/09/04 05:42:13;;;;;;;4.37;2.40;;;;;;;15.10;100.00;96518.63;5018450;28;20223;-74
2022/09/04 05:44:57;;;;;;;4.50;2.60;;;;;;;15.08;100.00;96528.09;5002737;28;20215;-74
2022/09/04 05:47:37;;;;;;;3.10;2.47;;;;;;;15.10;100.00;96537.66;5019575;28;20203;-75
2022/09/04 05:50:31;;;;;;;3.00;2.37;;;;;;;15.13;100.00;96548.03;5001266;28;20200;-73
2022/09/04 05:53:41;;;;;;;3.50;2.10;;;;;;;15.08;100.00;96547.97;5008400;28;20234;-74
2022/09/04 05:56:41;;;;;;;2.60;2.30;;;;;;;15.08;100.00;96547.97;4992864;28;20295;-74
2022/09/04 05:59:33;;;;;;;3.70;2.47;;;;;;;15.11;100.00;96549.38;5003844;28;20240;-74
2022/09/04 06:02:25;;;;;;;2.60;2.40;;;;;;;15.08;100.00;96547.13;5008348;28;21599;-74
2022/09/04 06:05:12;;;;;;;5.00;2.93;;;;;;;14.99;100.00;96548.66;5017086;28;20214;-73
2022/09/04 06:07:48;;;;;;;4.10;2.23;;;;;;;14.98;100.00;96545.13;5007809;28;20206;-74
2022/09/04 06:10:23;;;;;;;2.70;2.30;;;;;;;14.98;100.00;96550.56;5019297;28;20213;-75
2022/09/04 06:13:13;;;;;;;4.20;2.40;;;;;;;14.91;100.00;96549.09;5019844;28;20199;-74
2022/09/04 06:15:57;;;;;;;3.33;2.47;;;;;;;14.86;100.00;96557.22;5005584;28;20206;-74
2022/09/04 06:18:48;;;;;;;4.07;2.10;;;;;;;14.90;100.00;96561.06;5001015;28;20207;-74
2022/09/04 06:22:03;;;;;;;4.90;2.60;;;;;;;14.90;100.00;96561.88;5019353;28;20315;-74
2022/09/04 06:24:59;;;;;;;3.03;2.20;;;;;;;14.86;100.00;96566.19;4923936;28;20217;-75
2022/09/04 06:27:57;;;;;;;5.43;2.83;;;;;;;14.75;100.00;96558.97;5014982;28;20215;-74
2022/09/04 06:30:30;;;;;;;2.83;2.57;;;;;;;14.73;100.00;96561.09;5001788;28;20207;-74
2022/09/04 06:33:18;;;;;;;3.20;2.90;;;;;;;14.77;100.00;96567.69;4999611;28;20401;-75
2022/09/04 06:35:56;;;;;;;3.10;2.53;;;;;;;14.75;100.00;96570.66;4998519;28;20203;-75
2022/09/04 06:38:39;;;;;;;2.43;2.23;;;;;;;14.74;100.00;96566.28;5013963;28;20279;-74
2022/09/04 06:41:34;;;;;;;2.30;2.10;;;;;;;14.79;100.00;96571.00;5020050;28;20219;-74
2022/09/04 06:44:09;;;;;;;2.50;2.30;;;;;;;14.89;100.00;96575.72;5016250;28;20218;-74
2022/09/04 06:46:42;;;;;;;4.97;2.73;;;;;;;14.94;100.00;96571.19;5003559;28;20232;-74
2022/09/04 06:49:22;;;;;;;3.57;2.77;;;;;;;14.97;100.00;96578.81;5025730;28;20211;-74
2022/09/04 06:52:04;;;;;;;2.93;2.60;;;;;;;15.04;100.00;96584.91;5002039;28;20209;-73
2022/09/04 06:54:46;;;;;;;5.73;3.10;;;;;;;15.10;100.00;96574.91;4996948;28;20215;-74
2022/09/04 06:57:45;;;;;;;3.70;3.33;;;;;;;15.12;100.00;96589.91;5009263;28;20247;-74
2022/09/04 07:00:13;;;;;;;4.23;3.37;;;;;;;15.06;100.00;96577.31;5011408;28;20216;-74
2022/09/04 07:03:08;;;;;;;5.67;2.73;;;;;;;15.08;100.00;96587.94;5014155;28;20228;-74
2022/09/04 07:05:48;;;;;;;3.00;2.53;;;;;;;15.19;100.00;96578.00;5000724;28;20255;-74
2022/09/04 07:08:25;;;;;;;3.60;2.53;;;;;;;15.30;100.00;96577.06;5020087;28;20207;-74
2022/09/04 07:11:03;;;;;;;3.07;2.43;;;;;;;15.41;100.00;96567.91;5003571;28;20215;-74
2022/09/04 07:13:59;;;;;;;2.37;2.17;;;;;;;15.53;100.00;96579.50;5012973;28;20207;-75
2022/09/04 07:16:37;;;;;;;2.77;2.40;;;;;;;15.66;100.00;96576.38;4999398;28;20215;-75
2022/09/04 07:19:20;;;;;;;3.07;2.77;;;;;;;15.73;100.00;96577.03;5006864;28;20214;-74
2022/09/04 07:22:04;;;;;;;3.93;2.83;;;;;;;15.80;100.00;96585.81;5021607;28;20220;-74
2022/09/04 07:24:55;;;;;;;4.53;2.80;;;;;;;15.95;100.00;96587.84;5007440;28;20239;-74
2022/09/04 07:27:35;;;;;;;5.23;2.20;;;;;;;15.87;100.00;96594.59;5004114;28;20227;-74
2022/09/04 07:30:05;;;;;;;2.70;2.23;;;;;;;15.89;100.00;96591.59;4993479;28;20210;-74
2022/09/04 07:32:39;;;;;;;2.50;2.30;;;;;;;15.95;100.00;96589.75;5017157;28;20200;-74
2022/09/04 07:35:15;;;;;;;5.23;2.20;;;;;;;16.06;100.00;96584.16;5025225;28;20275;-74
2022/09/04 07:37:57;;;;;;;4.83;2.10;;;;;;;16.20;100.00;96593.50;5004527;28;20302;-74
2022/09/04 07:40:29;;;;;;;2.47;2.27;;;;;;;16.36;100.00;96591.72;5005803;28;20338;-74
2022/09/04 07:43:04;;;;;;;2.60;2.37;;;;;;;16.43;100.00;96594.22;5012380;28;20228;-74
2022/09/04 07:45:36;;;;;;;2.47;2.27;;;;;;;16.49;100.00;96595.94;5007510;28;20211;-74
2022/09/04 07:48:20;;;;;;;2.17;1.97;;;;;;;16.50;100.00;96590.19;5004448;28;20218;-74
2022/09/04 07:51:02;;;;;;;3.93;2.20;;;;;;;16.58;100.00;96606.09;5005975;28;20200;-74
2022/09/04 07:53:53;;;;;;;2.17;1.97;;;;;;;16.75;100.00;96602.41;5025663;28;20212;-74
2022/09/04 07:56:30;;;;;;;4.67;2.27;;;;;;;16.90;100.00;96616.13;5024785;28;20239;-74
2022/09/04 07:59:21;;;;;;;2.33;2.13;;;;;;;17.02;100.00;96603.09;5023633;28;20218;-74
2022/09/04 08:01:57;;;;;;;3.53;2.20;;;;;;;17.30;100.00;96612.78;5018118;28;20225;-74
2022/09/04 08:05:02;;;;;;;2.80;2.13;;;;;;;17.41;100.00;96614.47;5007426;28;20211;-74
2022/09/04 08:07:52;;;;;;;4.43;2.27;;;;;;;17.71;100.00;96620.06;5021241;28;20211;-74
2022/09/04 08:10:30;;;;;;;2.17;1.97;;;;;;;18.05;100.00;96620.41;5008835;28;20199;-75
2022/09/04 08:13:12;;;;;;;2.30;2.00;;;;;;;18.32;100.00;96624.81;5019329;28;20222;-74
2022/09/04 08:15:45;;;;;;;2.10;1.90;;;;;;;18.27;100.00;96624.81;5001078;28;20219;-74
2022/09/04 08:18:41;;;;;;;3.27;2.00;;;;;;;18.41;100.00;96621.28;5025455;28;20678;-74
2022/09/04 08:21:25;;;;;;;5.47;2.33;;;;;;;18.73;100.00;96620.19;5018287;28;20278;-74
2022/09/04 08:24:21;;;;;;;2.10;1.70;;;;;;;19.09;100.00;96623.69;5005460;28;20285;-75
2022/09/04 08:27:03;;;;;;;3.67;1.60;;;;;;;19.18;100.00;96627.50;5003891;28;20208;-75
2022/09/04 08:29:50;;;;;;;1.97;1.60;;;;;;;19.10;100.00;96623.41;5020901;28;20207;-74
2022/09/04 08:32:41;;;;;;;2.17;1.60;;;;;;;19.25;100.00;96622.53;5006553;28;20222;-74
2022/09/04 08:35:19;;;;;;;3.22;1.67;;;;;;;19.68;100.00;96636.66;5024596;28;20302;-75
2022/09/04 08:38:05;;;;;;;2.97;1.60;;;;;;;19.75;100.00;96617.97;5013353;28;20220;-74
2022/09/04 08:41:05;;;;;;;2.42;1.90;;;;;;;19.60;100.00;96619.72;5005714;28;20265;-74
2022/09/04 08:43:48;;;;;;;4.13;2.10;;;;;;;19.54;100.00;96626.31;5016836;28;20235;-74
2022/09/04 08:46:53;;;;;;;3.35;1.75;;;;;;;19.84;100.00;96619.84;4996052;28;20212;-74
2022/09/04 08:50:00;;;;;;;2.13;1.90;;;;;;;20.13;100.00;96619.97;4999829;28;20207;-74
2022/09/04 08:52:57;;;;;;;2.13;1.92;;;;;;;19.87;100.00;96623.97;5017491;28;20222;-76
2022/09/04 08:55:50;;;;;;;2.53;1.73;;;;;;;19.55;100.00;96616.19;5019948;28;20208;-75
2022/09/04 08:58:44;;;;;;;2.38;1.90;;;;;;;19.43;100.00;96624.69;4997561;28;20300;-74
2022/09/04 09:01:34;;;;;;;3.08;1.92;;;;;;;19.42;100.00;96623.03;5005647;28;20210;-75
2022/09/04 09:04:26;;;;;;;2.20;2.00;;;;;;;19.57;100.00;96617.50;5020195;28;20210;-75
2022/09/04 09:07:29;;;;;;;1.90;1.80;;;;;;;19.70;100.00;96613.38;5001087;28;20200;-74
2022/09/04 09:10:28;;;;;;;3.47;1.80;;;;;;;20.08;100.00;96606.28;4999848;28;20207;-75
2022/09/04 09:13:29;;;;;;;3.72;1.60;;;;;;;20.44;98.42;96612.34;5002856;28;20267;-75
2022/09/04 09:16:22;;;;;;;3.33;1.77;;;;;;;20.49;93.66;96606.84;5002606;28;20214;-75
2022/09/04 09:19:21;;;;;;;2.20;1.80;;;;;;;20.47;92.32;96608.22;4991773;28;20227;-74
2022/09/04 09:22:08;;;;;;;4.55;3.25;;;;;;;20.55;93.24;96607.59;5012435;28;20203;-75
2022/09/04 09:24:59;;;;;;;2.65;1.92;;;;;;;20.68;92.75;96602.25;5009320;28;20206;-75
2022/09/04 09:28:12;;;;;;;2.03;1.80;;;;;;;20.79;90.81;96597.50;4998679;28;20222;-75
2022/09/04 09:31:06;;;;;;;1.70;1.60;;;;;;;20.80;89.79;96593.66;5015342;28;20203;-74
2022/09/04 09:34:10;;;;;;;2.85;2.00;;;;;;;20.74;90.33;96590.16;5016039;28;20243;-74
2022/09/04 09:37:07;;;;;;;1.70;1.60;;;;;;;20.81;88.54;96583.50;4994811;28;20231;-74
2022/09/04 09:40:12;;;;;;;2.35;1.67;;;;;;;20.87;91.40;96585.06;4978076;28;20293;-74
2022/09/04 09:43:28;;;;;;;1.77;1.67;;;;;;;20.98;95.40;96590.19;4980889;28;20226;-74
2022/09/04 09:46:24;;;;;;;2.28;2.00;;;;;;;21.11;94.77;96588.66;4997452;28;20311;-74
2022/09/04 09:49:20;;;;;;;2.00;1.80;;;;;;;21.39;96.30;96581.50;5017990;28;20208;-74
2022/09/04 09:52:08;;;;;;;2.00;1.80;;;;;;;21.68;93.10;96590.50;5003252;28;20219;-74
2022/09/04 09:55:10;;;;;;;2.63;1.70;;;;;;;21.79;88.21;96582.91;5004565;28;20217;-74
2022/09/04 09:58:04;;;;;;;4.63;2.33;;;;;;;21.96;87.76;96576.91;5000254;28;20250;-75
2022/09/04 10:00:45;;;;;;;2.88;2.17;;;;;;;21.89;87.62;96574.53;4981938;28;20269;-75
2022/09/04 10:03:36;;;;;;;1.80;1.70;;;;;;;21.72;85.97;96577.78;4999726;28;20289;-74
2022/09/04 10:06:52;;;;;;;2.08;1.88;;;;;;;21.69;90.77;96577.56;5026766;28;20246;-75
2022/09/04 10:09:47;;;;;;;3.70;2.20;;;;;;;21.69;91.46;96572.88;4939137;28;20285;-75
2022/09/04 10:13:08;;;;;;;2.55;2.03;;;;;;;21.73;93.34;96579.41;5015165;28;20227;-74
2022/09/04 10:16:06;;;;;;;1.85;1.75;;;;;;;21.75;91.18;96579.94;5013522;28;20318;-75
2022/09/04 10:19:11;;;;;;;2.70;2.45;;;;;;;21.78;88.99;96576.59;4993631;28;20236;-75
2022/09/04 10:22:20;;;;;;;3.33;2.58;;;;;;;21.82;89.71;96569.41;4992395;28;20219;-75
2022/09/04 10:25:23;;;;;;;3.92;2.60;;;;;;;21.89;91.60;96566.28;5010886;28;20207;-74
2022/09/04 10:28:18;;;;;;;2.58;1.98;;;;;;;21.98;91.42;96569.19;5002604;28;20216;-75
2022/09/04 10:31:06;;;;;;;2.10;1.90;;;;;;;21.95;89.82;96567.81;5009893;28;20304;-75
2022/09/04 10:33:46;;;;;;;2.15;1.90;;;;;;;21.88;89.96;96567.38;5018173;28;20204;-75
2022/09/04 10:36:28;;;;;;;5.00;2.10;;;;;;;21.86;91.06;96561.38;5002203;28;20294;-75
2022/09/04 10:42:11;;;;;;;3.30;1.80;;;;;;;22.00;91.87;96561.47;5018986;28;20210;-75
2022/09/04 10:44:50;;;;;;;2.55;1.80;;;;;;;21.97;92.46;96557.38;5013945;28;20206;-75
2022/09/04 10:47:44;;;;;;;2.97;2.38;;;;;;;21.96;92.02;96552.97;5018921;28;20276;-75
2022/09/04 10:50:24;;;;;;;2.58;2.10;;;;;;;21.86;92.95;96551.19;5021213;28;20290;-75
2022/09/04 10:53:34;;;;;;;3.13;2.15;;;;;;;21.69;94.26;96550.88;5011090;28;20208;-75
2022/09/04 10:56:22;;;;;;;2.78;2.45;;;;;;;21.51;93.88;96538.78;4999008;28;20251;-74
2022/09/04 10:59:11;;;;;;;2.63;2.42;;;;;;;21.40;97.11;96541.94;5019366;28;20211;-75
2022/09/04 11:02:02;;;;;;;5.38;4.03;;;;;;;21.33;97.16;96542.31;5004659;28;20207;-75
2022/09/04 11:04:59;;;;;;;2.53;2.20;;;;;;;21.61;100.00;96545.22;4994421;28;20212;-75
2022/09/04 11:07:48;;;;;;;2.90;1.90;;;;;;;21.83;99.88;96540.81;4969925;28;20583;-75
2022/09/04 11:10:34;;;;;;;1.90;1.80;;;;;;;22.05;91.46;96536.66;5013586;28;20207;-75
2022/09/04 11:13:55;;;;;;;2.25;2.05;;;;;;;22.27;89.41;96539.59;4997263;28;20218;-75
2022/09/04 11:16:48;;;;;;;5.05;1.90;;;;;;;22.41;85.99;96537.72;4924052;28;20229;-75
2022/09/04 11:20:05;;;;;;;3.40;2.08;;;;;;;22.76;84.08;96541.81;4925501;29;20215;-75
2022/09/04 11:23:09;;;;;;;2.30;2.10;;;;;;;23.24;81.23;96533.97;4998029;28;20292;-75
2022/09/04 11:26:07;;;;;;;3.45;1.88;;;;;;;23.68;83.03;96533.34;5000749;28;20199;-76
2022/09/04 11:28:46;;;;;;;3.92;2.85;;;;;;;23.91;81.39;96528.69;4967834;28;20298;-75
2022/09/04 11:31:30;;;;;;;3.35;2.15;;;;;;;23.57;80.48;96515.38;5002493;28;20208;-75
2022/09/04 11:34:42;;;;;;;4.30;1.90;;;;;;;23.83;81.51;96521.16;4997828;28;20226;-75
2022/09/04 11:37:35;;;;;;;2.42;2.13;;;;;;;24.30;82.73;96514.28;5019097;28;20207;-75
2022/09/04 11:40:37;;;;;;;2.70;2.28;;;;;;;24.49;80.91;96516.84;5015140;28;20235;-75
2022/09/04 11:43:31;;;;;;;2.40;2.10;;;;;;;24.54;81.74;96511.19;4996282;28;20212;-75
2022/09/04 11:46:40;;;;;;;4.05;3.35;;;;;;;24.39;81.96;96512.41;5018678;28;20212;-75
2022/09/04 11:49:45;;;;;;;3.65;2.22;;;;;;;24.46;82.32;96512.75;5016237;28;20314;-76
2022/09/04 11:52:25;;;;;;;2.20;2.00;;;;;;;24.29;84.01;96514.59;4991162;28;20215;-76
2022/09/04 11:55:08;;;;;;;2.80;2.20;;;;;;;24.09;83.15;96516.69;5004935;28;20208;-76
2022/09/04 11:57:48;;;;;;;2.60;2.30;;;;;;;24.04;83.35;96516.00;5006397;28;20275;-75
2022/09/04 12:00:16;;;;;;;2.30;2.10;;;;;;;24.04;84.68;96516.81;4993153;28;20294;-75
2022/09/04 12:03:16;;;;;;;2.40;2.20;;;;;;;23.80;86.54;96508.00;5012588;28;20223;-75
2022/09/04 12:06:07;;;;;;;4.57;2.35;;;;;;;23.61;88.50;96518.34;5017051;28;20203;-75
2022/09/04 12:09:07;;;;;;;2.45;2.22;;;;;;;23.42;87.09;96520.38;5012304;28;20306;-75
2022/09/04 12:12:01;;;;;;;2.28;2.10;;;;;;;23.31;89.57;96519.78;5001398;28;20196;-75
2022/09/04 12:14:52;;;;;;;4.00;2.30;;;;;;;23.31;88.54;96520.59;5004752;28;20243;-76
2022/09/04 12:17:38;;;;;;;2.20;2.00;;;;;;;23.27;89.84;96516.84;4997136;28;20212;-75
2022/09/04 12:20:39;;;;;;;2.67;2.33;;;;;;;23.36;92.15;96523.28;5019087;28;20302;-75
2022/09/04 12:23:32;;;;;;;3.25;2.55;;;;;;;23.36;90.50;96526.03;5004122;28;20238;-75
2022/09/04 12:26:32;;;;;;;6.30;2.33;;;;;;;23.37;90.07;96524.91;4997834;28;20208;-74
2022/09/04 12:29:51;;;;;;;2.50;2.20;;;;;;;23.34;89.32;96525.50;5005979;28;20307;-74
2022/09/04 12:32:51;;;;;;;3.03;2.53;;;;;;;23.38;89.18;96515.50;4962662;28;20217;-74
2022/09/04 12:35:51;;;;;;;2.60;2.40;;;;;;;23.36;90.32;96517.75;4958303;28;20207;-74
2022/09/04 12:39:00;;;;;;;3.05;2.10;;;;;;;23.37;94.91;96519.38;5019974;28;20316;-75
2022/09/04 12:41:35;;;;;;;2.38;2.17;;;;;;;23.30;97.65;96524.50;5022106;28;20221;-74
2022/09/04 12:44:11;;;;;;;2.78;2.30;;;;;;;23.23;95.33;96521.31;4999891;28;20246;-74
2022/09/04 12:46:54;;;;;;;2.72;2.13;;;;;;;23.18;100.00;96515.09;5025244;28;20203;-74
2022/09/04 12:49:47;;;;;;;4.57;2.42;;;;;;;23.12;100.00;96522.66;5003656;28;20239;-75
2022/09/04 12:52:24;;;;;;;2.78;2.50;;;;;;;23.26;100.00;96526.22;5020148;28;20274;-75
2022/09/04 12:55:03;;;;;;;3.05;2.63;;;;;;;23.31;100.00;96526.13;5021960;28;20318;-76